sensor_id;sensor_type;location;lat;lon;timestamp;P1;durP1;ratioP1;P2;durP2;ratioP2
30462;SDS011;17256;43.618;25.336;2023-04-19T00:01:06;15.57;;;10.87;;
30462;SDS011;17256;43.618;25.336;2023-04-19T00:03:35;12.30;;;9.50;;
30462;SDS011;17256;43.618;25.336;2023-04-19T00:06:08;10.77;;;9.67;;
30462;SDS011;17256;43.618;25.336;2023-04-19T00:08:35;12.17;;;10.90;;
30462;SDS011;17256;43.618;25.336;2023-04-19T00:11:05;16.50;;;10.50;;
30462;SDS011;17256;43.618;25.336;2023-04-19T00:13:32;13.17;;;9.57;;
30462;SDS011;17256;43.618;25.336;2023-04-19T00:15:59;12.53;;;10.07;;
30462;SDS011;17256;43.618;25.336;2023-04-19T00:18:31;11.60;;;10.00;;
30462;SDS011;17256;43.618;25.336;2023-04-19T00:21:12;11.17;;;9.87;;
30462;SDS011;17256;43.618;25.336;2023-04-19T00:23:38;13.43;;;10.43;;
30462;SDS011;17256;43.618;25.336;2023-04-19T00:26:05;13.70;;;9.43;;
30462;SDS011;17256;43.618;25.336;2023-04-19T00:28:41;11.40;;;10.10;;
30462;SDS011;17256;43.618;25.336;2023-04-19T00:31:19;13.97;;;10.80;;
30462;SDS011;17256;43.618;25.336;2023-04-19T00:34:31;13.97;;;10.63;;
30462;SDS011;17256;43.618;25.336;2023-04-19T00:37:49;11.33;;;9.40;;
30462;SDS011;17256;43.618;25.336;2023-04-19T00:40:56;16.37;;;10.13;;
30462;SDS011;17256;43.618;25.336;2023-04-19T00:44:26;14.37;;;9.67;;
30462;SDS011;17256;43.618;25.336;2023-04-19T00:47:52;15.17;;;9.97;;
30462;SDS011;17256;43.618;25.336;2023-04-19T00:51:10;9.97;;;8.97;;
30462;SDS011;17256;43.618;25.336;2023-04-19T00:57:43;13.83;;;10.70;;
30462;SDS011;17256;43.618;25.336;2023-04-19T01:03:33;13.37;;;10.53;;
30462;SDS011;17256;43.618;25.336;2023-04-19T01:07:26;14.40;;;10.27;;
30462;SDS011;17256;43.618;25.336;2023-04-19T01:10:58;14.80;;;11.20;;
30462;SDS011;17256;43.618;25.336;2023-04-19T01:14:43;13.37;;;9.87;;
30462;SDS011;17256;43.618;25.336;2023-04-19T01:18:14;11.40;;;10.23;;
30462;SDS011;17256;43.618;25.336;2023-04-19T01:21:31;14.03;;;11.47;;
30462;SDS011;17256;43.618;25.336;2023-04-19T01:24:51;16.17;;;10.13;;
30462;SDS011;17256;43.618;25.336;2023-04-19T01:28:39;14.83;;;10.60;;
30462;SDS011;17256;43.618;25.336;2023-04-19T02:03:49;17.23;;;12.93;;
30462;SDS011;17256;43.618;25.336;2023-04-19T02:07:59;13.53;;;11.60;;
30462;SDS011;17256;43.618;25.336;2023-04-19T02:11:13;14.23;;;12.73;;
30462;SDS011;17256;43.618;25.336;2023-04-19T02:15:13;17.43;;;13.07;;
30462;SDS011;17256;43.618;25.336;2023-04-19T02:22:27;15.43;;;12.87;;
30462;SDS011;17256;43.618;25.336;2023-04-19T02:33:08;23.77;;;15.93;;
30462;SDS011;17256;43.618;25.336;2023-04-19T02:36:46;19.53;;;14.33;;
30462;SDS011;17256;43.618;25.336;2023-04-19T02:52:54;16.37;;;13.27;;
30462;SDS011;17256;43.618;25.336;2023-04-19T02:56:00;15.20;;;13.60;;
30462;SDS011;17256;43.618;25.336;2023-04-19T03:02:34;16.23;;;13.03;;
30462;SDS011;17256;43.618;25.336;2023-04-19T03:13:13;17.43;;;15.63;;
30462;SDS011;17256;43.618;25.336;2023-04-19T03:16:07;17.20;;;13.93;;
30462;SDS011;17256;43.618;25.336;2023-04-19T03:23:19;16.10;;;14.50;;
30462;SDS011;17256;43.618;25.336;2023-04-19T03:30:21;18.73;;;12.43;;
30462;SDS011;17256;43.618;25.336;2023-04-19T03:41:45;14.03;;;12.37;;
30462;SDS011;17256;43.618;25.336;2023-04-19T03:45:26;15.43;;;12.10;;
30462;SDS011;17256;43.618;25.336;2023-04-19T03:48:25;15.83;;;11.77;;
30462;SDS011;17256;43.618;25.336;2023-04-19T03:51:38;15.90;;;13.27;;
30462;SDS011;17256;43.618;25.336;2023-04-19T03:58:32;14.27;;;12.77;;
30462;SDS011;17256;43.618;25.336;2023-04-19T04:01:03;14.40;;;11.80;;
30462;SDS011;17256;43.618;25.336;2023-04-19T04:03:30;17.37;;;12.47;;
30462;SDS011;17256;43.618;25.336;2023-04-19T04:05:57;12.53;;;11.27;;
30462;SDS011;17256;43.618;25.336;2023-04-19T04:08:22;13.20;;;11.90;;
30462;SDS011;17256;43.618;25.336;2023-04-19T04:10:48;14.73;;;11.00;;
30462;SDS011;17256;43.618;25.336;2023-04-19T04:13:13;13.23;;;11.63;;
30462;SDS011;17256;43.618;25.336;2023-04-19T04:30:59;14.17;;;11.30;;
30462;SDS011;17256;43.618;25.336;2023-04-19T04:34:38;15.83;;;14.07;;
30462;SDS011;17256;43.618;25.336;2023-04-19T04:37:17;17.93;;;14.90;;
30462;SDS011;17256;43.618;25.336;2023-04-19T04:39:48;14.47;;;13.03;;
30462;SDS011;17256;43.618;25.336;2023-04-19T04:42:14;16.13;;;13.17;;
30462;SDS011;17256;43.618;25.336;2023-04-19T04:44:40;14.03;;;12.60;;
30462;SDS011;17256;43.618;25.336;2023-04-19T04:47:09;12.67;;;11.47;;
30462;SDS011;17256;43.618;25.336;2023-04-19T04:49:42;15.40;;;12.33;;
30462;SDS011;17256;43.618;25.336;2023-04-19T04:52:10;15.00;;;13.20;;
30462;SDS011;17256;43.618;25.336;2023-04-19T04:54:45;16.57;;;14.43;;
30462;SDS011;17256;43.618;25.336;2023-04-19T04:57:20;18.43;;;13.10;;
30462;SDS011;17256;43.618;25.336;2023-04-19T04:59:52;15.23;;;13.67;;
30462;SDS011;17256;43.618;25.336;2023-04-19T05:02:19;15.97;;;14.67;;
30462;SDS011;17256;43.618;25.336;2023-04-19T05:04:47;14.10;;;12.50;;
30462;SDS011;17256;43.618;25.336;2023-04-19T05:07:14;16.40;;;13.50;;
30462;SDS011;17256;43.618;25.336;2023-04-19T05:09:40;15.60;;;13.77;;
30462;SDS011;17256;43.618;25.336;2023-04-19T05:12:08;14.00;;;12.57;;
30462;SDS011;17256;43.618;25.336;2023-04-19T05:14:34;13.43;;;12.20;;
30462;SDS011;17256;43.618;25.336;2023-04-19T05:17:01;14.47;;;13.17;;
30462;SDS011;17256;43.618;25.336;2023-04-19T05:19:29;13.10;;;10.67;;
30462;SDS011;17256;43.618;25.336;2023-04-19T05:22:01;13.60;;;11.07;;
30462;SDS011;17256;43.618;25.336;2023-04-19T05:24:27;20.67;;;18.53;;
30462;SDS011;17256;43.618;25.336;2023-04-19T05:26:54;15.73;;;14.20;;
30462;SDS011;17256;43.618;25.336;2023-04-19T05:29:22;16.13;;;12.87;;
30462;SDS011;17256;43.618;25.336;2023-04-19T05:31:52;14.10;;;12.60;;
30462;SDS011;17256;43.618;25.336;2023-04-19T05:34:26;13.33;;;11.83;;
30462;SDS011;17256;43.618;25.336;2023-04-19T05:36:53;14.43;;;12.67;;
30462;SDS011;17256;43.618;25.336;2023-04-19T05:39:21;16.07;;;12.33;;
30462;SDS011;17256;43.618;25.336;2023-04-19T05:41:50;14.83;;;12.97;;
30462;SDS011;17256;43.618;25.336;2023-04-19T05:44:23;13.67;;;12.23;;
30462;SDS011;17256;43.618;25.336;2023-04-19T05:47:04;13.77;;;12.47;;
30462;SDS011;17256;43.618;25.336;2023-04-19T05:49:55;14.53;;;13.07;;
30462;SDS011;17256;43.618;25.336;2023-04-19T05:52:34;13.30;;;12.00;;
30462;SDS011;17256;43.618;25.336;2023-04-19T05:55:03;13.13;;;11.93;;
30462;SDS011;17256;43.618;25.336;2023-04-19T05:57:32;13.40;;;12.00;;
30462;SDS011;17256;43.618;25.336;2023-04-19T06:00:00;12.40;;;11.13;;
30462;SDS011;17256;43.618;25.336;2023-04-19T06:02:38;11.13;;;10.07;;
30462;SDS011;17256;43.618;25.336;2023-04-19T06:05:05;11.43;;;10.33;;
30462;SDS011;17256;43.618;25.336;2023-04-19T06:07:32;9.93;;;9.10;;
30462;SDS011;17256;43.618;25.336;2023-04-19T06:09:59;11.80;;;9.23;;
30462;SDS011;17256;43.618;25.336;2023-04-19T06:12:30;18.83;;;10.93;;
30462;SDS011;17256;43.618;25.336;2023-04-19T06:14:56;9.67;;;8.67;;
30462;SDS011;17256;43.618;25.336;2023-04-19T06:17:25;9.17;;;8.27;;
30462;SDS011;17256;43.618;25.336;2023-04-19T06:19:51;12.03;;;10.83;;
30462;SDS011;17256;43.618;25.336;2023-04-19T06:22:20;9.27;;;8.37;;
30462;SDS011;17256;43.618;25.336;2023-04-19T06:24:48;10.20;;;8.90;;
30462;SDS011;17256;43.618;25.336;2023-04-19T06:27:15;9.30;;;7.70;;
30462;SDS011;17256;43.618;25.336;2023-04-19T06:29:44;8.83;;;6.53;;
30462;SDS011;17256;43.618;25.336;2023-04-19T11:46:36;6.60;;;5.40;;
30462;SDS011;17256;43.618;25.336;2023-04-19T11:49:29;10.67;;;6.67;;
30462;SDS011;17256;43.618;25.336;2023-04-19T11:52:58;6.17;;;5.33;;
30462;SDS011;17256;43.618;25.336;2023-04-19T12:02:19;8.33;;;5.23;;
30462;SDS011;17256;43.618;25.336;2023-04-19T12:08:02;7.07;;;5.70;;
30462;SDS011;17256;43.618;25.336;2023-04-19T12:11:18;8.13;;;5.27;;
30462;SDS011;17256;43.618;25.336;2023-04-19T12:13:47;5.07;;;4.57;;
30462;SDS011;17256;43.618;25.336;2023-04-19T12:16:42;5.17;;;4.40;;
30462;SDS011;17256;43.618;25.336;2023-04-19T12:25:31;9.73;;;5.23;;
30462;SDS011;17256;43.618;25.336;2023-04-19T12:28:02;9.57;;;5.03;;
30462;SDS011;17256;43.618;25.336;2023-04-19T12:30:28;4.57;;;4.07;;
30462;SDS011;17256;43.618;25.336;2023-04-19T12:32:54;4.80;;;4.27;;
30462;SDS011;17256;43.618;25.336;2023-04-19T12:35:23;4.97;;;3.90;;
30462;SDS011;17256;43.618;25.336;2023-04-19T12:44:37;5.93;;;4.43;;
30462;SDS011;17256;43.618;25.336;2023-04-19T12:47:44;4.23;;;3.77;;
30462;SDS011;17256;43.618;25.336;2023-04-19T12:53:53;5.77;;;3.63;;
30462;SDS011;17256;43.618;25.336;2023-04-19T12:56:25;7.00;;;3.77;;
30462;SDS011;17256;43.618;25.336;2023-04-19T13:02:04;3.97;;;3.57;;
30462;SDS011;17256;43.618;25.336;2023-04-19T13:05:22;10.13;;;8.20;;
30462;SDS011;17256;43.618;25.336;2023-04-19T13:13:19;5.20;;;4.73;;
30462;SDS011;17256;43.618;25.336;2023-04-19T13:15:50;7.43;;;6.20;;
30462;SDS011;17256;43.618;25.336;2023-04-19T13:21:41;6.60;;;4.57;;
30462;SDS011;17256;43.618;25.336;2023-04-19T13:24:06;7.67;;;6.93;;
30462;SDS011;17256;43.618;25.336;2023-04-19T13:26:32;8.13;;;5.43;;
30462;SDS011;17256;43.618;25.336;2023-04-19T13:28:58;6.13;;;4.90;;
30462;SDS011;17256;43.618;25.336;2023-04-19T13:31:26;12.70;;;4.60;;
30462;SDS011;17256;43.618;25.336;2023-04-19T13:33:52;6.03;;;5.53;;
30462;SDS011;17256;43.618;25.336;2023-04-19T13:36:18;5.77;;;5.27;;
30462;SDS011;17256;43.618;25.336;2023-04-19T13:38:45;5.50;;;5.00;;
30462;SDS011;17256;43.618;25.336;2023-04-19T13:41:12;7.20;;;4.47;;
30462;SDS011;17256;43.618;25.336;2023-04-19T13:43:38;5.03;;;4.40;;
30462;SDS011;17256;43.618;25.336;2023-04-19T13:46:06;4.73;;;3.93;;
30462;SDS011;17256;43.618;25.336;2023-04-19T13:48:35;8.00;;;3.97;;
30462;SDS011;17256;43.618;25.336;2023-04-19T13:55:08;6.07;;;3.30;;
30462;SDS011;17256;43.618;25.336;2023-04-19T14:01:39;5.90;;;3.40;;
30462;SDS011;17256;43.618;25.336;2023-04-19T14:07:14;5.40;;;3.50;;
30462;SDS011;17256;43.618;25.336;2023-04-19T14:10:15;6.63;;;3.30;;
30462;SDS011;17256;43.618;25.336;2023-04-19T14:16:19;5.30;;;3.93;;
30462;SDS011;17256;43.618;25.336;2023-04-19T14:19:06;3.33;;;3.00;;
30462;SDS011;17256;43.618;25.336;2023-04-19T14:22:16;30.63;;;24.43;;
30462;SDS011;17256;43.618;25.336;2023-04-19T14:25:13;53.37;;;35.33;;
30462;SDS011;17256;43.618;25.336;2023-04-19T14:27:42;13.37;;;10.77;;
30462;SDS011;17256;43.618;25.336;2023-04-19T14:30:09;11.90;;;7.80;;
30462;SDS011;17256;43.618;25.336;2023-04-19T14:32:37;3.90;;;3.47;;
30462;SDS011;17256;43.618;25.336;2023-04-19T14:35:03;13.67;;;6.20;;
30462;SDS011;17256;43.618;25.336;2023-04-19T14:37:31;9.37;;;6.63;;
30462;SDS011;17256;43.618;25.336;2023-04-19T14:44:43;3.53;;;3.23;;
30462;SDS011;17256;43.618;25.336;2023-04-19T14:48:16;4.37;;;3.47;;
30462;SDS011;17256;43.618;25.336;2023-04-19T14:52:08;5.40;;;3.60;;
30462;SDS011;17256;43.618;25.336;2023-04-19T14:54:53;4.43;;;3.80;;
30462;SDS011;17256;43.618;25.336;2023-04-19T14:58:32;4.57;;;4.03;;
30462;SDS011;17256;43.618;25.336;2023-04-19T15:08:29;5.03;;;4.07;;
30462;SDS011;17256;43.618;25.336;2023-04-19T15:11:24;7.30;;;4.73;;
30462;SDS011;17256;43.618;25.336;2023-04-19T15:13:50;8.53;;;6.83;;
30462;SDS011;17256;43.618;25.336;2023-04-19T15:16:16;7.23;;;6.53;;
30462;SDS011;17256;43.618;25.336;2023-04-19T15:18:41;5.90;;;5.30;;
30462;SDS011;17256;43.618;25.336;2023-04-19T15:21:07;5.37;;;4.87;;
30462;SDS011;17256;43.618;25.336;2023-04-19T15:23:34;8.70;;;6.47;;
30462;SDS011;17256;43.618;25.336;2023-04-19T15:26:22;7.53;;;6.70;;
30462;SDS011;17256;43.618;25.336;2023-04-19T15:28:54;14.83;;;10.53;;
30462;SDS011;17256;43.618;25.336;2023-04-19T15:39:06;8.47;;;7.67;;
30462;SDS011;17256;43.618;25.336;2023-04-19T15:42:12;21.13;;;13.00;;
30462;SDS011;17256;43.618;25.336;2023-04-19T15:44:43;14.13;;;11.63;;
30462;SDS011;17256;43.618;25.336;2023-04-19T15:51:27;6.93;;;6.33;;
30462;SDS011;17256;43.618;25.336;2023-04-19T15:54:41;13.53;;;6.50;;
30462;SDS011;17256;43.618;25.336;2023-04-19T15:57:32;9.27;;;6.13;;
30462;SDS011;17256;43.618;25.336;2023-04-19T15:59:58;9.13;;;8.33;;
30462;SDS011;17256;43.618;25.336;2023-04-19T16:02:24;11.13;;;10.17;;
30462;SDS011;17256;43.618;25.336;2023-04-19T16:04:59;11.27;;;8.57;;
30462;SDS011;17256;43.618;25.336;2023-04-19T16:07:26;7.77;;;7.07;;
30462;SDS011;17256;43.618;25.336;2023-04-19T16:09:52;16.37;;;14.87;;
30462;SDS011;17256;43.618;25.336;2023-04-19T16:12:21;11.07;;;10.07;;
30462;SDS011;17256;43.618;25.336;2023-04-19T16:18:45;18.10;;;10.70;;
30462;SDS011;17256;43.618;25.336;2023-04-19T16:21:11;15.50;;;9.87;;
30462;SDS011;17256;43.618;25.336;2023-04-19T16:29:16;17.70;;;10.90;;
30462;SDS011;17256;43.618;25.336;2023-04-19T16:34:52;9.50;;;8.60;;
30462;SDS011;17256;43.618;25.336;2023-04-19T16:37:52;9.20;;;8.07;;
30462;SDS011;17256;43.618;25.336;2023-04-19T16:44:34;12.33;;;9.53;;
30462;SDS011;17256;43.618;25.336;2023-04-19T16:47:37;9.50;;;8.70;;
30462;SDS011;17256;43.618;25.336;2023-04-19T16:50:41;9.83;;;8.97;;
30462;SDS011;17256;43.618;25.336;2023-04-19T16:53:32;12.17;;;11.10;;
30462;SDS011;17256;43.618;25.336;2023-04-19T16:56:45;11.40;;;10.40;;
30462;SDS011;17256;43.618;25.336;2023-04-19T16:59:11;27.97;;;24.33;;
30462;SDS011;17256;43.618;25.336;2023-04-19T17:01:36;14.43;;;13.03;;
30462;SDS011;17256;43.618;25.336;2023-04-19T17:04:13;20.23;;;18.30;;
30462;SDS011;17256;43.618;25.336;2023-04-19T17:08:16;11.80;;;10.70;;
30462;SDS011;17256;43.618;25.336;2023-04-19T17:12:02;12.80;;;11.67;;
30462;SDS011;17256;43.618;25.336;2023-04-19T17:14:58;11.53;;;10.33;;
30462;SDS011;17256;43.618;25.336;2023-04-19T17:17:24;12.63;;;11.37;;
30462;SDS011;17256;43.618;25.336;2023-04-19T17:33:56;15.13;;;13.63;;
30462;SDS011;17256;43.618;25.336;2023-04-19T17:44:02;15.33;;;13.27;;
30462;SDS011;17256;43.618;25.336;2023-04-19T17:46:28;13.60;;;12.10;;
30462;SDS011;17256;43.618;25.336;2023-04-19T17:49:17;11.90;;;10.57;;
30462;SDS011;17256;43.618;25.336;2023-04-19T17:52:17;10.87;;;9.93;;
30462;SDS011;17256;43.618;25.336;2023-04-19T17:55:30;11.97;;;10.87;;
30462;SDS011;17256;43.618;25.336;2023-04-19T17:57:58;10.27;;;9.27;;
30462;SDS011;17256;43.618;25.336;2023-04-19T18:00:23;9.90;;;8.90;;
30462;SDS011;17256;43.618;25.336;2023-04-19T18:02:49;10.37;;;9.27;;
30462;SDS011;17256;43.618;25.336;2023-04-19T18:05:15;11.37;;;9.40;;
30462;SDS011;17256;43.618;25.336;2023-04-19T18:07:41;11.33;;;10.23;;
30462;SDS011;17256;43.618;25.336;2023-04-19T18:10:07;10.83;;;9.83;;
30462;SDS011;17256;43.618;25.336;2023-04-19T18:12:33;11.70;;;10.37;;
30462;SDS011;17256;43.618;25.336;2023-04-19T18:14:59;11.43;;;9.87;;
30462;SDS011;17256;43.618;25.336;2023-04-19T18:17:26;10.30;;;9.20;;
30462;SDS011;17256;43.618;25.336;2023-04-19T18:19:52;8.40;;;7.70;;
30462;SDS011;17256;43.618;25.336;2023-04-19T18:25:25;7.70;;;6.90;;
30462;SDS011;17256;43.618;25.336;2023-04-19T18:27:50;7.30;;;6.60;;
30462;SDS011;17256;43.618;25.336;2023-04-19T18:30:16;7.97;;;7.27;;
30462;SDS011;17256;43.618;25.336;2023-04-19T18:32:42;6.17;;;5.67;;
30462;SDS011;17256;43.618;25.336;2023-04-19T18:35:07;6.43;;;5.90;;
30462;SDS011;17256;43.618;25.336;2023-04-19T18:37:34;6.63;;;6.00;;
30462;SDS011;17256;43.618;25.336;2023-04-19T18:40:09;6.33;;;5.73;;
30462;SDS011;17256;43.618;25.336;2023-04-19T18:42:49;5.97;;;5.37;;
30462;SDS011;17256;43.618;25.336;2023-04-19T18:45:17;7.37;;;5.77;;
30462;SDS011;17256;43.618;25.336;2023-04-19T18:47:58;6.70;;;5.90;;
30462;SDS011;17256;43.618;25.336;2023-04-19T18:50:58;5.90;;;5.43;;
30462;SDS011;17256;43.618;25.336;2023-04-19T18:53:53;8.63;;;7.00;;
30462;SDS011;17256;43.618;25.336;2023-04-19T18:56:59;6.97;;;6.27;;
30462;SDS011;17256;43.618;25.336;2023-04-19T19:00:30;6.57;;;5.97;;
30462;SDS011;17256;43.618;25.336;2023-04-19T19:03:44;6.80;;;6.10;;
30462;SDS011;17256;43.618;25.336;2023-04-19T19:07:18;7.27;;;5.83;;
30462;SDS011;17256;43.618;25.336;2023-04-19T19:10:01;6.90;;;6.30;;
30462;SDS011;17256;43.618;25.336;2023-04-19T19:12:48;7.40;;;6.80;;
30462;SDS011;17256;43.618;25.336;2023-04-19T19:16:10;9.10;;;7.13;;
30462;SDS011;17256;43.618;25.336;2023-04-19T19:18:36;8.83;;;7.13;;
30462;SDS011;17256;43.618;25.336;2023-04-19T19:21:02;8.83;;;7.37;;
30462;SDS011;17256;43.618;25.336;2023-04-19T19:23:30;8.03;;;6.80;;
30462;SDS011;17256;43.618;25.336;2023-04-19T19:29:26;8.67;;;7.83;;
30462;SDS011;17256;43.618;25.336;2023-04-19T19:41:10;7.93;;;7.17;;
30462;SDS011;17256;43.618;25.336;2023-04-19T19:43:36;8.93;;;8.00;;
30462;SDS011;17256;43.618;25.336;2023-04-19T19:46:03;11.17;;;9.00;;
30462;SDS011;17256;43.618;25.336;2023-04-19T19:48:29;10.87;;;8.83;;
30462;SDS011;17256;43.618;25.336;2023-04-19T19:50:55;10.47;;;8.90;;
30462;SDS011;17256;43.618;25.336;2023-04-19T19:53:22;8.93;;;7.70;;
30462;SDS011;17256;43.618;25.336;2023-04-19T19:55:49;9.20;;;7.63;;
30462;SDS011;17256;43.618;25.336;2023-04-19T19:58:15;9.43;;;8.40;;
30462;SDS011;17256;43.618;25.336;2023-04-19T20:00:41;9.10;;;8.20;;
30462;SDS011;17256;43.618;25.336;2023-04-19T20:03:06;8.90;;;8.10;;
30462;SDS011;17256;43.618;25.336;2023-04-19T20:05:32;8.20;;;7.50;;
30462;SDS011;17256;43.618;25.336;2023-04-19T20:08:05;7.53;;;6.83;;
30462;SDS011;17256;43.618;25.336;2023-04-19T20:10:33;8.03;;;7.33;;
30462;SDS011;17256;43.618;25.336;2023-04-19T20:12:59;9.43;;;6.80;;
30462;SDS011;17256;43.618;25.336;2023-04-19T20:15:25;7.27;;;6.67;;
30462;SDS011;17256;43.618;25.336;2023-04-19T20:17:51;7.10;;;6.50;;
30462;SDS011;17256;43.618;25.336;2023-04-19T20:20:17;7.40;;;6.80;;
30462;SDS011;17256;43.618;25.336;2023-04-19T20:22:43;8.13;;;7.33;;
30462;SDS011;17256;43.618;25.336;2023-04-19T20:28:51;14.70;;;9.73;;
30462;SDS011;17256;43.618;25.336;2023-04-19T20:31:17;11.53;;;8.57;;
30462;SDS011;17256;43.618;25.336;2023-04-19T20:33:44;10.00;;;9.00;;
30462;SDS011;17256;43.618;25.336;2023-04-19T20:36:10;10.93;;;9.83;;
30462;SDS011;17256;43.618;25.336;2023-04-19T20:38:38;10.83;;;9.83;;
30462;SDS011;17256;43.618;25.336;2023-04-19T20:41:04;9.73;;;8.83;;
30462;SDS011;17256;43.618;25.336;2023-04-19T20:43:30;8.70;;;7.80;;
30462;SDS011;17256;43.618;25.336;2023-04-19T20:45:56;9.47;;;8.67;;
30462;SDS011;17256;43.618;25.336;2023-04-19T20:48:22;10.20;;;9.30;;
30462;SDS011;17256;43.618;25.336;2023-04-19T20:50:47;10.17;;;9.20;;
30462;SDS011;17256;43.618;25.336;2023-04-19T20:53:13;10.80;;;7.77;;
30462;SDS011;17256;43.618;25.336;2023-04-19T20:55:39;8.73;;;7.63;;
30462;SDS011;17256;43.618;25.336;2023-04-19T20:58:05;7.90;;;6.97;;
30462;SDS011;17256;43.618;25.336;2023-04-19T21:00:30;8.73;;;7.93;;
30462;SDS011;17256;43.618;25.336;2023-04-19T21:02:57;8.27;;;7.37;;
30462;SDS011;17256;43.618;25.336;2023-04-19T21:05:22;7.50;;;6.80;;
30462;SDS011;17256;43.618;25.336;2023-04-19T21:07:48;7.87;;;6.93;;
30462;SDS011;17256;43.618;25.336;2023-04-19T21:10:14;9.30;;;7.10;;
30462;SDS011;17256;43.618;25.336;2023-04-19T21:12:41;7.17;;;6.33;;
30462;SDS011;17256;43.618;25.336;2023-04-19T21:15:07;7.17;;;6.57;;
30462;SDS011;17256;43.618;25.336;2023-04-19T21:17:33;7.97;;;6.87;;
30462;SDS011;17256;43.618;25.336;2023-04-19T21:19:59;7.90;;;7.00;;
30462;SDS011;17256;43.618;25.336;2023-04-19T21:22:27;6.80;;;6.13;;
30462;SDS011;17256;43.618;25.336;2023-04-19T21:24:52;7.43;;;6.27;;
30462;SDS011;17256;43.618;25.336;2023-04-19T21:27:18;9.87;;;6.73;;
30462;SDS011;17256;43.618;25.336;2023-04-19T21:29:44;7.47;;;6.43;;
30462;SDS011;17256;43.618;25.336;2023-04-19T21:32:10;8.07;;;6.13;;
30462;SDS011;17256;43.618;25.336;2023-04-19T21:34:35;6.60;;;6.00;;
30462;SDS011;17256;43.618;25.336;2023-04-19T21:37:02;7.37;;;6.50;;
30462;SDS011;17256;43.618;25.336;2023-04-19T21:39:29;7.63;;;6.80;;
30462;SDS011;17256;43.618;25.336;2023-04-19T21:41:54;9.37;;;6.90;;
30462;SDS011;17256;43.618;25.336;2023-04-19T21:44:21;7.20;;;6.50;;
30462;SDS011;17256;43.618;25.336;2023-04-19T21:46:47;8.77;;;6.90;;
30462;SDS011;17256;43.618;25.336;2023-04-19T21:49:12;6.53;;;6.00;;
30462;SDS011;17256;43.618;25.336;2023-04-19T21:51:38;7.40;;;6.37;;
30462;SDS011;17256;43.618;25.336;2023-04-19T21:54:05;6.77;;;6.17;;
30462;SDS011;17256;43.618;25.336;2023-04-19T21:56:31;6.83;;;6.20;;
30462;SDS011;17256;43.618;25.336;2023-04-19T21:58:57;5.97;;;5.30;;
30462;SDS011;17256;43.618;25.336;2023-04-19T22:01:22;8.40;;;5.27;;
30462;SDS011;17256;43.618;25.336;2023-04-19T22:03:48;6.40;;;5.00;;
30462;SDS011;17256;43.618;25.336;2023-04-19T22:06:15;6.97;;;6.00;;
30462;SDS011;17256;43.618;25.336;2023-04-19T22:08:41;6.87;;;5.53;;
30462;SDS011;17256;43.618;25.336;2023-04-19T22:11:08;6.93;;;4.67;;
30462;SDS011;17256;43.618;25.336;2023-04-19T22:13:33;6.93;;;6.13;;
30462;SDS011;17256;43.618;25.336;2023-04-19T22:16:01;6.30;;;5.70;;
30462;SDS011;17256;43.618;25.336;2023-04-19T22:18:27;6.07;;;5.57;;
30462;SDS011;17256;43.618;25.336;2023-04-19T22:20:53;7.83;;;5.47;;
30462;SDS011;17256;43.618;25.336;2023-04-19T22:23:19;6.27;;;5.50;;
30462;SDS011;17256;43.618;25.336;2023-04-19T22:25:45;8.40;;;6.07;;
30462;SDS011;17256;43.618;25.336;2023-04-19T22:28:11;6.73;;;6.10;;
30462;SDS011;17256;43.618;25.336;2023-04-19T22:30:38;6.80;;;6.10;;
30462;SDS011;17256;43.618;25.336;2023-04-19T22:33:03;6.30;;;5.80;;
30462;SDS011;17256;43.618;25.336;2023-04-19T22:35:29;6.10;;;5.47;;
30462;SDS011;17256;43.618;25.336;2023-04-19T22:37:55;6.70;;;6.10;;
30462;SDS011;17256;43.618;25.336;2023-04-19T22:40:22;7.70;;;6.50;;
30462;SDS011;17256;43.618;25.336;2023-04-19T22:42:47;7.13;;;6.00;;
30462;SDS011;17256;43.618;25.336;2023-04-19T22:45:13;7.63;;;6.83;;
30462;SDS011;17256;43.618;25.336;2023-04-19T22:47:39;8.93;;;6.57;;
30462;SDS011;17256;43.618;25.336;2023-04-19T22:50:05;7.77;;;6.30;;
30462;SDS011;17256;43.618;25.336;2023-04-19T22:52:31;6.80;;;6.10;;
30462;SDS011;17256;43.618;25.336;2023-04-19T22:55:01;7.07;;;6.23;;
30462;SDS011;17256;43.618;25.336;2023-04-19T22:57:27;8.03;;;6.30;;
30462;SDS011;17256;43.618;25.336;2023-04-19T22:59:53;6.60;;;6.00;;
30462;SDS011;17256;43.618;25.336;2023-04-19T23:02:27;7.43;;;6.30;;
30462;SDS011;17256;43.618;25.336;2023-04-19T23:05:37;7.30;;;6.60;;
30462;SDS011;17256;43.618;25.336;2023-04-19T23:16:38;7.13;;;6.00;;
30462;SDS011;17256;43.618;25.336;2023-04-19T23:24:02;7.13;;;6.30;;
30462;SDS011;17256;43.618;25.336;2023-04-19T23:31:23;6.97;;;6.37;;
30462;SDS011;17256;43.618;25.336;2023-04-19T23:35:08;9.07;;;6.87;;
30462;SDS011;17256;43.618;25.336;2023-04-19T23:38:08;7.90;;;6.60;;
30462;SDS011;17256;43.618;25.336;2023-04-19T23:40:34;8.27;;;7.47;;
30462;SDS011;17256;43.618;25.336;2023-04-19T23:43:01;7.77;;;7.07;;
30462;SDS011;17256;43.618;25.336;2023-04-19T23:45:27;7.00;;;6.37;;
30462;SDS011;17256;43.618;25.336;2023-04-19T23:47:53;7.77;;;7.00;;
30462;SDS011;17256;43.618;25.336;2023-04-19T23:50:18;7.87;;;7.17;;
30462;SDS011;17256;43.618;25.336;2023-04-19T23:52:44;8.10;;;7.40;;
30462;SDS011;17256;43.618;25.336;2023-04-19T23:55:10;8.00;;;7.23;;
30462;SDS011;17256;43.618;25.336;2023-04-19T23:57:36;7.90;;;7.20;;
